Terminal Aerodrome Forecast
Issued by NWS

Home | Current Version | Previous Version | Text Only | Print | Product List | Glossary Off
Versions: 1 2 3 4 5 6 7 8 9 10 11 12 13

000
FTUS45 KGGW 230500
TAFOLF
TAF
KOLF 230522Z 2306/2406 VRB05KT P6SM FEW240
     FM232100 23009KT P6SM SCT100
     FM240000 VRB05KT P6SM BKN110=

USA.gov is the U.S. government's official web portal to all federal, state and local government web resources and services.